createdAt,value
2017-06-17T00:01:58.425Z,12.90
2017-06-17T00:04:26.795Z,12.80
2017-06-17T00:06:55.155Z,12.80
2017-06-17T00:09:22.746Z,12.80
2017-06-17T00:11:51.055Z,12.80
2017-06-17T00:14:18.674Z,12.70
2017-06-17T00:16:46.237Z,12.70
2017-06-17T00:19:14.577Z,12.60
2017-06-17T00:21:42.118Z,12.60
2017-06-17T00:24:09.710Z,12.60
2017-06-17T00:26:37.257Z,12.70
2017-06-17T00:29:04.815Z,12.60
2017-06-17T00:31:32.374Z,12.60
2017-06-17T00:33:59.923Z,12.50
2017-06-17T00:36:27.474Z,12.50
2017-06-17T00:38:55.085Z,12.50
2017-06-17T00:41:22.642Z,12.50
2017-06-17T00:43:50.190Z,12.50
2017-06-17T00:46:17.747Z,12.50
2017-06-17T00:48:45.301Z,12.50
2017-06-17T00:51:12.867Z,12.50
2017-06-17T00:53:40.402Z,12.40
2017-06-17T00:56:07.968Z,12.40
2017-06-17T00:58:35.507Z,12.40
2017-06-17T01:01:03.130Z,12.50
2017-06-17T01:03:30.697Z,12.50
2017-06-17T01:05:58.322Z,12.50
2017-06-17T01:08:25.890Z,12.50
2017-06-17T01:10:53.459Z,12.50
2017-06-17T01:13:20.999Z,12.40
2017-06-17T01:15:48.583Z,12.50
2017-06-17T01:18:16.161Z,12.40
2017-06-17T01:20:43.811Z,12.40
2017-06-17T01:23:11.492Z,12.50
2017-06-17T01:25:39.127Z,12.40
2017-06-17T01:28:06.735Z,12.40
2017-06-17T01:30:35.063Z,12.40
2017-06-17T01:33:02.619Z,12.40
2017-06-17T01:35:30.198Z,12.40
2017-06-17T01:37:57.754Z,12.50
2017-06-17T01:40:25.322Z,12.50
2017-06-17T01:42:52.871Z,12.50
2017-06-17T01:45:20.432Z,12.50
2017-06-17T01:47:47.998Z,12.50
2017-06-17T01:50:15.547Z,12.60
2017-06-17T01:52:43.110Z,12.60
2017-06-17T01:55:10.641Z,12.60
2017-06-17T01:57:38.230Z,12.60
2017-06-17T02:00:05.772Z,12.60
2017-06-17T02:02:33.355Z,12.60
2017-06-17T02:05:00.921Z,12.60
2017-06-17T02:07:28.570Z,12.60
2017-06-17T02:09:56.126Z,12.60
2017-06-17T02:12:23.717Z,12.60
2017-06-17T02:14:51.259Z,12.50
2017-06-17T02:17:18.826Z,12.50
2017-06-17T02:19:46.384Z,12.50
2017-06-17T02:22:13.954Z,12.50
2017-06-17T02:24:41.504Z,12.40
2017-06-17T02:27:09.067Z,12.40
2017-06-17T02:29:36.629Z,12.30
2017-06-17T02:32:04.198Z,12.40
2017-06-17T02:34:31.745Z,12.30
2017-06-17T02:36:59.306Z,12.30
2017-06-17T02:39:26.843Z,12.30
2017-06-17T02:47:40.917Z,12.30
2017-06-17T02:50:08.518Z,12.30
2017-06-17T02:52:36.082Z,12.30
2017-06-17T02:55:03.614Z,12.20
2017-06-17T02:57:31.200Z,12.20
2017-06-17T02:59:58.733Z,12.30
2017-06-17T03:02:26.321Z,12.30
2017-06-17T03:04:53.852Z,12.20
2017-06-17T03:07:22.129Z,12.20
2017-06-17T03:09:49.666Z,12.10
2017-06-17T03:12:17.990Z,12.10
2017-06-17T03:14:45.551Z,12.10
2017-06-17T03:17:13.084Z,12.20
2017-06-17T03:19:40.674Z,12.10
2017-06-17T03:22:08.214Z,12.10
2017-06-17T03:24:35.798Z,12.10
2017-06-17T03:27:03.334Z,12.10
2017-06-17T03:29:30.874Z,12.00
2017-06-17T03:31:58.419Z,11.90
2017-06-17T03:34:26.756Z,12.00
2017-06-17T03:36:54.322Z,12.00
2017-06-17T03:39:21.886Z,12.00
2017-06-17T03:41:49.430Z,11.90
2017-06-17T03:44:17.005Z,11.90
2017-06-17T03:46:44.544Z,11.90
2017-06-17T03:49:12.080Z,11.90
2017-06-17T03:51:39.622Z,11.90
2017-06-17T03:54:07.974Z,12.00
2017-06-17T03:56:35.618Z,12.00
2017-06-17T03:59:03.182Z,12.10
2017-06-17T04:01:30.754Z,12.10
2017-06-17T04:03:58.339Z,12.10
2017-06-17T04:06:25.978Z,12.20
2017-06-17T04:08:53.518Z,12.20
2017-06-17T04:11:21.093Z,12.30
2017-06-17T04:13:48.630Z,12.30
2017-06-17T04:16:16.177Z,12.30
2017-06-17T04:18:43.774Z,12.30
2017-06-17T04:21:11.339Z,12.30
2017-06-17T04:23:38.898Z,12.20
2017-06-17T04:26:06.434Z,12.40
2017-06-17T04:28:34.010Z,12.50
2017-06-17T04:31:01.578Z,12.50
2017-06-17T04:33:29.121Z,12.60
2017-06-17T04:35:56.699Z,12.70
2017-06-17T04:38:24.263Z,12.70
2017-06-17T04:40:51.905Z,12.60
2017-06-17T04:43:19.438Z,12.60
2017-06-17T04:45:47.766Z,12.80
2017-06-17T04:48:15.322Z,12.80
2017-06-17T04:50:42.890Z,12.80
2017-06-17T04:53:10.445Z,12.80
2017-06-17T04:55:38.006Z,12.90
2017-06-17T04:58:05.547Z,13.00
2017-06-17T05:00:33.122Z,13.00
2017-06-17T05:03:00.662Z,13.10
2017-06-17T05:05:28.256Z,13.20
2017-06-17T05:07:55.802Z,13.30
2017-06-17T05:10:23.377Z,13.50
2017-06-17T05:12:50.938Z,13.50
2017-06-17T05:15:18.491Z,13.50
2017-06-17T05:17:46.026Z,13.70
2017-06-17T05:20:13.564Z,14.00
2017-06-17T05:22:41.862Z,14.40
2017-06-17T05:25:09.402Z,14.30
2017-06-17T05:27:37.729Z,14.30
2017-06-17T05:30:05.282Z,14.30
2017-06-17T05:32:32.844Z,14.80
2017-06-17T05:35:00.386Z,15.30
2017-06-17T05:37:27.943Z,15.00
2017-06-17T05:39:55.526Z,15.60
2017-06-17T05:42:23.082Z,16.30
2017-06-17T05:44:50.610Z,15.70
2017-06-17T05:47:18.938Z,17.10
2017-06-17T05:49:46.483Z,17.10
2017-06-17T05:52:14.145Z,17.10
2017-06-17T05:54:41.719Z,17.50
2017-06-17T05:57:09.279Z,16.80
2017-06-17T05:59:36.815Z,17.80
2017-06-17T06:02:04.401Z,17.40
2017-06-17T06:04:31.946Z,17.90
2017-06-17T06:06:59.486Z,19.20
2017-06-17T06:09:27.026Z,19.10
2017-06-17T06:11:55.354Z,18.80
2017-06-17T06:14:22.922Z,18.80
2017-06-17T06:16:50.477Z,18.40
2017-06-17T06:19:18.021Z,19.90
2017-06-17T06:21:45.599Z,19.10
2017-06-17T06:24:14.077Z,17.80
2017-06-17T06:26:41.646Z,18.60
2017-06-17T06:29:09.311Z,18.40
2017-06-17T06:31:36.870Z,17.60
2017-06-17T06:34:04.527Z,18.80
2017-06-17T06:36:32.063Z,18.20
2017-06-17T06:38:59.635Z,18.10
2017-06-17T06:41:27.215Z,19.60
2017-06-17T06:43:54.771Z,18.90
2017-06-17T06:46:22.302Z,18.00
2017-06-17T06:48:49.901Z,17.20
2017-06-17T06:51:17.434Z,16.70
2017-06-17T06:53:45.018Z,16.40
2017-06-17T06:56:12.550Z,17.50
2017-06-17T06:58:40.138Z,18.70
2017-06-17T07:01:07.676Z,18.90
2017-06-17T07:03:35.258Z,19.40
2017-06-17T07:06:02.789Z,19.00
2017-06-17T07:08:30.386Z,18.00
2017-06-17T07:10:57.942Z,17.60
2017-06-17T07:13:25.492Z,17.10
2017-06-17T07:15:53.030Z,17.30
2017-06-17T07:18:20.622Z,17.40
2017-06-17T07:20:48.290Z,18.90
2017-06-17T07:23:15.825Z,19.80
2017-06-17T07:25:43.406Z,20.80
2017-06-17T07:28:10.982Z,19.90
2017-06-17T07:30:38.643Z,20.40
2017-06-17T07:33:12.760Z,20.50
2017-06-17T07:35:40.414Z,19.40
2017-06-17T07:38:07.950Z,18.50
2017-06-17T07:40:35.623Z,19.70
2017-06-17T07:43:03.171Z,20.20
2017-06-17T07:45:30.764Z,20.30
2017-06-17T07:47:58.326Z,20.10
2017-06-17T07:50:26.498Z,19.00
2017-06-17T07:52:54.158Z,18.30
2017-06-17T07:55:21.699Z,18.10
2017-06-17T07:57:49.282Z,18.00
2017-06-17T08:00:16.821Z,18.10
2017-06-17T08:02:44.390Z,18.20
2017-06-17T08:05:11.926Z,19.50
2017-06-17T08:07:39.518Z,20.60
2017-06-17T08:10:07.074Z,20.60
2017-06-17T08:12:34.646Z,20.40
2017-06-17T08:15:02.298Z,21.50
2017-06-17T08:17:29.831Z,21.60
2017-06-17T08:19:57.634Z,21.80
2017-06-17T08:22:25.162Z,21.90
2017-06-17T08:24:52.750Z,22.40
2017-06-17T08:27:20.277Z,23.60
2017-06-17T08:29:47.883Z,23.50
2017-06-17T08:32:15.438Z,23.20
2017-06-17T08:34:43.102Z,22.70
2017-06-17T08:37:10.768Z,22.10
2017-06-17T08:39:38.335Z,21.30
2017-06-17T08:42:05.890Z,19.90
2017-06-17T08:44:33.442Z,19.10
2017-06-17T08:47:01.110Z,20.00
2017-06-17T08:49:28.642Z,20.00
2017-06-17T08:51:56.256Z,19.50
2017-06-17T08:54:23.894Z,18.90
2017-06-17T08:56:51.458Z,18.80
2017-06-17T08:59:19.009Z,19.00
2017-06-17T09:01:46.551Z,19.10
2017-06-17T09:04:14.094Z,19.30
2017-06-17T09:06:42.426Z,20.80
2017-06-17T09:09:09.970Z,20.80
2017-06-17T09:11:37.540Z,20.10
2017-06-17T09:14:05.079Z,19.60
2017-06-17T09:16:32.650Z,19.10
2017-06-17T09:19:00.186Z,19.20
2017-06-17T09:21:27.719Z,19.40
2017-06-17T09:23:56.014Z,20.00
2017-06-17T09:26:23.622Z,20.00
2017-06-17T09:28:51.190Z,19.50
2017-06-17T09:31:18.737Z,19.00
2017-06-17T09:33:46.303Z,18.90
2017-06-17T09:36:13.834Z,19.10
2017-06-17T09:38:41.364Z,19.80
2017-06-17T09:41:09.706Z,21.40
2017-06-17T09:43:37.241Z,21.40
2017-06-17T09:46:04.763Z,20.80
2017-06-17T09:48:33.098Z,20.00
2017-06-17T09:51:00.762Z,20.00
2017-06-17T09:53:28.322Z,21.40
2017-06-17T09:55:55.986Z,22.60
2017-06-17T09:58:23.541Z,22.40
2017-06-17T10:00:51.077Z,22.00
2017-06-17T10:03:18.674Z,21.90
2017-06-17T10:05:46.211Z,22.50
2017-06-17T10:08:13.790Z,22.10
2017-06-17T10:10:41.319Z,21.20
2017-06-17T10:13:08.914Z,20.90
2017-06-17T10:15:36.477Z,21.30
2017-06-17T10:18:04.130Z,22.40
2017-06-17T10:20:31.659Z,23.50
2017-06-17T10:22:59.246Z,24.30
2017-06-17T10:25:26.813Z,24.60
2017-06-17T10:27:54.374Z,24.50
2017-06-17T10:30:21.902Z,23.00
2017-06-17T10:32:49.495Z,22.70
2017-06-17T10:35:17.026Z,22.00
2017-06-17T10:37:44.619Z,21.50
2017-06-17T10:40:12.178Z,21.20
2017-06-17T10:42:39.710Z,21.10
2017-06-17T10:45:07.306Z,21.90
2017-06-17T10:47:34.858Z,23.20
2017-06-17T10:50:02.418Z,23.90
2017-06-17T10:52:29.950Z,23.40
2017-06-17T10:54:57.546Z,23.60
2017-06-17T10:57:25.106Z,23.00
2017-06-17T10:59:55.693Z,23.10
2017-06-17T11:02:24.000Z,24.30
2017-06-17T11:04:51.583Z,24.30
2017-06-17T11:07:19.242Z,24.10
2017-06-17T11:09:46.803Z,23.10
2017-06-17T11:12:14.365Z,22.20
2017-06-17T11:14:41.918Z,21.40
2017-06-17T11:17:09.445Z,21.10
2017-06-17T11:19:37.034Z,22.40
2017-06-17T11:22:04.607Z,23.20
2017-06-17T11:24:32.135Z,22.50
2017-06-17T11:26:59.668Z,22.40
2017-06-17T11:29:28.019Z,23.40
2017-06-17T11:31:55.663Z,23.40
2017-06-17T11:34:23.330Z,23.20
2017-06-17T11:36:50.889Z,23.30
2017-06-17T11:39:18.442Z,24.20
2017-06-17T11:41:45.970Z,24.20
2017-06-17T11:44:14.271Z,23.00
2017-06-17T11:46:41.834Z,23.00
2017-06-17T11:49:09.417Z,22.80
2017-06-17T11:51:36.974Z,22.10
2017-06-17T11:54:04.625Z,21.90
2017-06-17T11:56:32.302Z,22.50
2017-06-17T11:58:59.834Z,21.90
2017-06-17T12:01:27.398Z,21.20
2017-06-17T12:03:54.989Z,21.20
2017-06-17T12:06:22.548Z,21.70
2017-06-17T12:08:50.105Z,22.30
2017-06-17T12:11:17.666Z,22.60
2017-06-17T12:13:45.226Z,22.40
2017-06-17T12:16:12.758Z,22.40
2017-06-17T12:18:40.345Z,22.10
2017-06-17T12:21:07.901Z,22.10
2017-06-17T12:23:35.434Z,21.90
2017-06-17T12:26:02.968Z,21.60
2017-06-17T12:28:30.526Z,21.60
2017-06-17T12:30:58.146Z,22.20
2017-06-17T12:36:18.862Z,22.20
2017-06-17T12:38:46.426Z,21.90
2017-06-17T12:41:13.998Z,21.80
2017-06-17T12:43:41.550Z,21.50
2017-06-17T12:46:09.110Z,21.30
2017-06-17T12:48:36.674Z,21.20
2017-06-17T12:51:04.240Z,21.00
2017-06-17T12:53:31.801Z,20.80
2017-06-17T12:55:59.398Z,20.50
2017-06-17T12:58:26.934Z,20.30
2017-06-17T13:00:54.611Z,19.90
2017-06-17T13:03:22.243Z,19.70
2017-06-17T13:05:49.905Z,19.60
2017-06-17T13:08:17.470Z,19.50
2017-06-17T13:10:45.038Z,19.50
2017-06-17T13:13:12.569Z,19.70
2017-06-17T13:15:40.106Z,19.90
2017-06-17T13:18:08.437Z,20.40
2017-06-17T13:20:35.975Z,20.40
2017-06-17T13:23:03.555Z,20.50
2017-06-17T13:25:31.115Z,20.80
2017-06-17T13:27:58.782Z,21.00
2017-06-17T13:30:26.338Z,21.00
2017-06-17T13:32:54.008Z,21.00
2017-06-17T13:35:21.537Z,20.80
2017-06-17T13:37:49.118Z,20.60
2017-06-17T13:40:16.646Z,20.90
2017-06-17T13:42:44.241Z,21.10
2017-06-17T13:45:11.766Z,21.10
2017-06-17T13:47:39.301Z,21.00
2017-06-17T13:50:06.919Z,20.90
2017-06-17T13:52:34.482Z,20.90
2017-06-17T13:55:02.035Z,20.80
2017-06-17T13:57:29.594Z,20.60
2017-06-17T13:59:57.171Z,20.50
2017-06-17T14:02:24.727Z,20.30
2017-06-17T14:04:52.299Z,20.40
2017-06-17T14:07:20.151Z,20.40
2017-06-17T14:09:47.689Z,20.40
2017-06-17T14:12:15.347Z,20.30
2017-06-17T14:14:42.886Z,20.10
2017-06-17T14:17:11.216Z,20.10
2017-06-17T14:19:38.754Z,20.10
2017-06-17T14:22:11.983Z,19.80
2017-06-17T14:24:39.539Z,19.60
2017-06-17T14:27:07.090Z,19.60
2017-06-17T14:29:34.665Z,19.40
2017-06-17T14:32:02.218Z,19.60
2017-06-17T14:34:29.775Z,19.80
2017-06-17T14:36:57.310Z,19.60
2017-06-17T14:39:24.898Z,19.60
2017-06-17T14:41:56.822Z,19.40
2017-06-17T14:44:24.495Z,19.40
2017-06-17T14:46:52.063Z,19.40
2017-06-17T14:49:19.650Z,19.30
2017-06-17T14:51:47.206Z,19.30
2017-06-17T14:54:14.743Z,19.30
2017-06-17T14:56:42.334Z,19.30
2017-06-17T14:59:10.914Z,19.40
2017-06-17T15:01:38.448Z,19.40
2017-06-17T15:04:06.016Z,19.50
2017-06-17T15:06:33.558Z,19.60
2017-06-17T15:09:01.159Z,19.60
2017-06-17T15:11:28.698Z,19.80
2017-06-17T15:13:56.242Z,19.90
2017-06-17T15:16:23.794Z,19.70
2017-06-17T15:18:52.114Z,19.40
2017-06-17T15:21:19.674Z,19.50
2017-06-17T15:23:47.241Z,19.20
2017-06-17T15:26:14.793Z,19.10
2017-06-17T15:28:42.367Z,19.00
2017-06-17T15:31:09.952Z,19.10
2017-06-17T15:33:37.593Z,19.20
2017-06-17T15:36:05.169Z,19.50
2017-06-17T15:38:32.712Z,19.70
2017-06-17T15:41:00.278Z,20.00
2017-06-17T15:43:27.890Z,20.00
2017-06-17T15:45:56.187Z,19.90
2017-06-17T15:48:23.722Z,19.90
2017-06-17T15:50:52.158Z,20.00
2017-06-17T15:53:20.018Z,20.00
2017-06-17T15:55:47.683Z,20.10
2017-06-17T15:58:15.242Z,20.00
2017-06-17T16:00:42.794Z,20.10
2017-06-17T16:03:10.357Z,20.10
2017-06-17T16:05:37.899Z,20.10
2017-06-17T16:08:05.479Z,20.00
2017-06-17T16:10:33.050Z,19.90
2017-06-17T16:13:00.593Z,19.80
2017-06-17T16:15:28.150Z,19.60
2017-06-17T16:17:55.702Z,19.60
2017-06-17T16:20:23.266Z,19.50
2017-06-17T16:22:50.848Z,19.50
2017-06-17T16:25:18.386Z,19.40
2017-06-17T16:27:45.927Z,19.30
2017-06-17T16:30:14.255Z,19.30
2017-06-17T16:32:41.816Z,19.30
2017-06-17T16:35:09.370Z,19.40
2017-06-17T16:37:36.973Z,19.40
2017-06-17T16:40:05.283Z,19.50
2017-06-17T16:42:32.906Z,19.50
2017-06-17T16:45:00.463Z,19.50
2017-06-17T16:47:28.037Z,19.40
2017-06-17T16:49:56.342Z,19.30
2017-06-17T16:52:23.931Z,19.30
2017-06-17T16:54:51.462Z,19.20
2017-06-17T16:57:19.050Z,19.20
2017-06-17T16:59:46.624Z,19.10
2017-06-17T17:02:14.159Z,19.00
2017-06-17T17:04:41.734Z,19.00
2017-06-17T17:07:10.106Z,19.00
2017-06-17T17:09:37.684Z,19.00
2017-06-17T17:12:05.243Z,18.90
2017-06-17T17:14:32.900Z,18.90
2017-06-17T17:17:00.458Z,18.90
2017-06-17T17:19:28.010Z,19.00
2017-06-17T17:21:55.546Z,18.90
2017-06-17T17:24:23.143Z,18.90
2017-06-17T17:26:50.704Z,18.90
2017-06-17T17:29:18.234Z,18.80
2017-06-17T17:31:45.770Z,18.90
2017-06-17T17:34:14.066Z,18.70
2017-06-17T17:36:41.661Z,18.70
2017-06-17T17:39:09.230Z,18.60
2017-06-17T17:41:36.793Z,18.50
2017-06-17T17:44:04.354Z,18.60
2017-06-17T17:46:32.006Z,18.50
2017-06-17T17:48:59.538Z,18.60
2017-06-17T17:51:27.101Z,18.50
2017-06-17T17:53:54.633Z,18.50
2017-06-17T17:56:22.172Z,18.50
2017-06-17T17:58:49.719Z,18.50
2017-06-17T18:01:17.278Z,18.60
2017-06-17T18:03:44.839Z,18.60
2017-06-17T18:06:12.398Z,18.60
2017-06-17T18:08:40.062Z,18.70
2017-06-17T18:11:07.613Z,18.70
2017-06-17T18:13:35.179Z,18.70
2017-06-17T18:16:02.711Z,18.70
2017-06-17T18:18:30.266Z,18.60
2017-06-17T18:20:57.808Z,18.50
2017-06-17T18:23:26.141Z,18.70
2017-06-17T18:25:53.707Z,18.70
2017-06-17T18:28:21.257Z,18.60
2017-06-17T18:30:48.790Z,18.60
2017-06-17T18:33:16.403Z,18.60
2017-06-17T18:35:44.042Z,18.60
2017-06-17T18:38:11.605Z,18.60
2017-06-17T18:40:39.266Z,18.60
2017-06-17T18:43:06.842Z,18.50
2017-06-17T18:45:34.497Z,18.40
2017-06-17T18:48:02.050Z,18.50
2017-06-17T18:50:29.622Z,18.50
2017-06-17T18:52:57.170Z,18.60
2017-06-17T18:55:24.706Z,18.50
2017-06-17T18:57:52.241Z,18.50
2017-06-17T19:00:20.578Z,18.50
2017-06-17T19:02:48.139Z,18.50
2017-06-17T19:05:15.708Z,18.50
2017-06-17T19:07:43.366Z,18.40
2017-06-17T19:10:10.918Z,18.30
2017-06-17T19:12:38.550Z,18.30
2017-06-17T19:15:06.091Z,18.20
2017-06-17T19:17:34.430Z,18.00
2017-06-17T19:20:02.177Z,18.00
2017-06-17T19:22:29.864Z,17.90
2017-06-17T19:24:57.518Z,17.90
2017-06-17T19:27:25.078Z,17.80
2017-06-17T19:29:52.644Z,17.70
2017-06-17T19:32:20.194Z,17.70
2017-06-17T19:34:47.863Z,17.60
2017-06-17T19:37:15.427Z,17.60
2017-06-17T19:39:42.986Z,17.50
2017-06-17T19:42:10.547Z,17.40
2017-06-17T19:44:38.122Z,17.40
2017-06-17T19:47:05.767Z,17.40
2017-06-17T19:49:33.334Z,17.20
2017-06-17T19:52:00.873Z,17.30
2017-06-17T19:54:28.446Z,17.20
2017-06-17T19:56:55.996Z,17.10
2017-06-17T19:59:23.618Z,17.20
2017-06-17T20:01:51.946Z,17.10
2017-06-17T20:04:19.495Z,17.00
2017-06-17T20:06:47.079Z,17.10
2017-06-17T20:09:14.638Z,17.10
2017-06-17T20:11:42.175Z,17.00
2017-06-17T20:14:09.764Z,17.00
2017-06-17T20:16:37.320Z,17.10
2017-06-17T20:19:04.864Z,17.00
2017-06-17T20:21:38.114Z,17.00
2017-06-17T20:24:12.050Z,16.80
2017-06-17T20:26:39.647Z,16.80
2017-06-17T20:29:07.202Z,16.70
2017-06-17T20:31:34.748Z,16.70
2017-06-17T20:34:02.308Z,16.70
2017-06-17T20:36:29.838Z,16.70
2017-06-17T20:38:58.262Z,16.60
2017-06-17T20:41:25.818Z,16.50
2017-06-17T20:43:53.357Z,16.60
2017-06-17T20:46:20.890Z,16.60
2017-06-17T20:48:49.298Z,16.50
2017-06-17T20:51:16.838Z,16.50
2017-06-17T20:53:45.186Z,16.50
2017-06-17T20:56:12.755Z,16.50
2017-06-17T20:58:40.298Z,16.50
2017-06-17T21:01:07.847Z,16.50
2017-06-17T21:03:35.386Z,16.50
2017-06-17T21:06:02.966Z,16.60
2017-06-17T21:08:30.506Z,16.50
2017-06-17T21:10:58.110Z,16.60
2017-06-17T21:13:25.762Z,16.60
2017-06-17T21:15:53.414Z,16.60
2017-06-17T21:18:20.962Z,16.70
2017-06-17T21:20:48.547Z,16.70
2017-06-17T21:23:16.110Z,16.70
2017-06-17T21:25:43.678Z,16.70
2017-06-17T21:28:11.255Z,16.70
2017-06-17T21:30:38.881Z,16.70
2017-06-17T21:33:06.570Z,16.70
2017-06-17T21:35:34.220Z,16.70
2017-06-17T21:38:01.760Z,16.80
2017-06-17T21:40:29.298Z,16.80
2017-06-17T21:42:56.895Z,16.80
2017-06-17T21:45:24.459Z,16.80
2017-06-17T21:47:52.118Z,16.90
2017-06-17T21:50:19.658Z,16.90
2017-06-17T21:52:47.198Z,16.90
2017-06-17T21:55:15.522Z,16.90
2017-06-17T21:57:43.067Z,16.90
2017-06-17T22:00:10.643Z,16.90
2017-06-17T22:02:38.183Z,16.90
2017-06-17T22:05:05.718Z,17.00
2017-06-17T22:07:34.042Z,17.00
2017-06-17T22:10:01.599Z,17.00
2017-06-17T22:12:29.165Z,17.00
2017-06-17T22:14:56.697Z,17.10
2017-06-17T22:17:24.238Z,17.00
2017-06-17T22:19:51.809Z,17.00
2017-06-17T22:22:19.410Z,17.00
2017-06-17T22:24:47.066Z,17.00
2017-06-17T22:27:14.630Z,17.00
2017-06-17T22:29:42.191Z,17.00
2017-06-17T22:32:09.747Z,17.00
2017-06-17T22:34:37.278Z,17.00
2017-06-17T22:37:04.862Z,17.00
2017-06-17T22:39:32.525Z,17.00
2017-06-17T22:42:00.109Z,16.90
2017-06-17T22:44:27.654Z,16.90
2017-06-17T22:46:55.191Z,16.90
2017-06-17T22:49:22.770Z,16.90
2017-06-17T22:51:50.436Z,16.90
2017-06-17T22:54:17.975Z,16.90
2017-06-17T22:56:45.653Z,16.90
2017-06-17T22:59:13.227Z,16.90
2017-06-17T23:01:40.790Z,16.90
2017-06-17T23:04:08.331Z,16.90
2017-06-17T23:06:35.910Z,16.90
2017-06-17T23:09:03.474Z,16.90
2017-06-17T23:11:31.034Z,16.90
2017-06-17T23:13:58.567Z,16.90
2017-06-17T23:16:26.154Z,17.00
2017-06-17T23:18:53.723Z,17.00
2017-06-17T23:21:21.255Z,16.90
2017-06-17T23:23:48.825Z,16.90
2017-06-17T23:26:16.402Z,16.90
2017-06-17T23:28:43.951Z,17.00
2017-06-17T23:31:11.521Z,16.90
2017-06-17T23:33:39.061Z,16.90
2017-06-17T23:36:06.606Z,16.90
2017-06-17T23:38:34.154Z,16.90
2017-06-17T23:41:02.482Z,16.80
2017-06-17T23:43:30.038Z,16.80
2017-06-17T23:45:57.572Z,16.80
2017-06-17T23:48:25.126Z,16.90
2017-06-17T23:50:52.661Z,16.80
2017-06-17T23:53:21.079Z,16.80
2017-06-17T23:55:48.746Z,16.80
2017-06-17T23:58:16.438Z,16.70
